createdAt,value
2023-02-09T00:00:39.489Z,-4.78
2023-02-09T00:04:21.759Z,-4.79
2023-02-09T00:07:51.568Z,-4.81
2023-02-09T00:11:42.795Z,-4.81
2023-02-09T00:15:11.697Z,-4.81
2023-02-09T00:18:39.153Z,-4.82
2023-02-09T00:22:06.337Z,-4.85
2023-02-09T00:25:33.535Z,-4.86
2023-02-09T00:29:01.024Z,-4.85
2023-02-09T00:32:28.384Z,-4.84
2023-02-09T00:35:55.910Z,-4.85
2023-02-09T00:39:23.719Z,-4.88
2023-02-09T00:42:50.908Z,-4.92
2023-02-09T00:46:18.109Z,-4.95
2023-02-09T00:49:45.371Z,-4.99
2023-02-09T00:53:12.510Z,-5.04
2023-02-09T00:56:41.345Z,-5.10
2023-02-09T01:00:10.826Z,-5.15
2023-02-09T01:03:38.111Z,-5.19
2023-02-09T01:07:05.465Z,-5.22
2023-02-09T01:10:32.748Z,-5.23
2023-02-09T01:14:12.064Z,-5.24
2023-02-09T01:17:37.764Z,-5.25
2023-02-09T01:21:10.516Z,-5.28
2023-02-09T01:24:38.547Z,-5.31
2023-02-09T01:28:05.975Z,-5.33
2023-02-09T01:31:41.261Z,-5.34
2023-02-09T01:35:12.635Z,-5.34
2023-02-09T01:38:39.851Z,-5.36
2023-02-09T01:42:12.996Z,-5.39
2023-02-09T01:45:47.545Z,-5.43
2023-02-09T01:49:17.334Z,-5.48
2023-02-09T01:52:50.395Z,-5.50
2023-02-09T01:56:27.031Z,-5.54
2023-02-09T02:00:02.541Z,-5.57
2023-02-09T02:03:41.779Z,-5.60
2023-02-09T02:07:18.029Z,-5.61
2023-02-09T02:10:45.604Z,-5.63
2023-02-09T02:14:35.586Z,-5.62
2023-02-09T02:18:31.617Z,-5.62
2023-02-09T02:22:37.168Z,-5.62
2023-02-09T02:26:35.430Z,-5.65
2023-02-09T02:30:43.670Z,-5.67
2023-02-09T02:34:25.590Z,-5.69
2023-02-09T02:38:01.892Z,-5.70
2023-02-09T02:41:59.434Z,-5.72
2023-02-09T02:45:38.270Z,-5.75
2023-02-09T02:49:11.267Z,-5.76
2023-02-09T02:52:45.113Z,-5.78
2023-02-09T02:56:20.700Z,-5.79
2023-02-09T02:59:54.972Z,-5.80
2023-02-09T03:03:27.094Z,-5.81
2023-02-09T03:06:54.572Z,-5.81
2023-02-09T03:10:34.678Z,-5.81
2023-02-09T03:14:14.139Z,-5.79
2023-02-09T03:17:48.631Z,-5.76
2023-02-09T03:21:21.432Z,-5.71
2023-02-09T03:24:54.407Z,-5.67
2023-02-09T03:28:28.560Z,-5.65
2023-02-09T03:31:56.513Z,-5.65
2023-02-09T03:35:25.144Z,-5.63
2023-02-09T03:38:52.347Z,-5.63
2023-02-09T03:42:19.546Z,-5.63
2023-02-09T03:45:46.866Z,-5.62
2023-02-09T03:49:15.351Z,-5.62
2023-02-09T03:52:53.710Z,-5.62
2023-02-09T03:56:25.064Z,-5.65
2023-02-09T03:59:52.295Z,-5.67
2023-02-09T04:03:19.467Z,-5.70
2023-02-09T04:06:46.997Z,-5.74
2023-02-09T04:10:25.616Z,-5.77
2023-02-09T04:13:52.901Z,-5.80
2023-02-09T04:17:20.175Z,-5.82
2023-02-09T04:20:47.663Z,-5.83
2023-02-09T04:24:15.330Z,-5.83
2023-02-09T04:27:42.401Z,-5.82
2023-02-09T04:31:10.050Z,-5.84
2023-02-09T04:34:37.281Z,-5.86
2023-02-09T04:38:06.700Z,-5.86
2023-02-09T04:41:34.196Z,-5.87
2023-02-09T04:45:04.632Z,-5.87
2023-02-09T04:48:32.957Z,-5.87
2023-02-09T04:52:00.126Z,-5.89
2023-02-09T04:55:27.400Z,-5.90
2023-02-09T04:59:14.894Z,-5.91
2023-02-09T05:02:42.123Z,-5.92
2023-02-09T05:06:09.886Z,-5.95
2023-02-09T05:09:40.117Z,-5.95
2023-02-09T05:13:10.377Z,-5.97
2023-02-09T05:16:39.232Z,-5.97
2023-02-09T05:20:12.029Z,-5.99
2023-02-09T05:23:39.151Z,-6.02
2023-02-09T05:27:06.582Z,-6.04
2023-02-09T05:30:34.664Z,-6.06
2023-02-09T05:34:02.673Z,-6.09
2023-02-09T05:37:29.965Z,-6.10
2023-02-09T05:40:57.482Z,-6.12
2023-02-09T05:44:24.939Z,-6.14
2023-02-09T05:48:12.359Z,-6.19
2023-02-09T05:51:39.532Z,-6.20
2023-02-09T05:55:07.853Z,-6.19
2023-02-09T05:58:34.939Z,-6.18
2023-02-09T06:02:02.797Z,-6.16
2023-02-09T06:05:30.366Z,-6.16
2023-02-09T06:08:57.500Z,-6.17
2023-02-09T06:12:24.818Z,-6.16
2023-02-09T06:15:52.232Z,-6.15
2023-02-09T06:19:21.806Z,-6.16
2023-02-09T06:22:48.968Z,-6.16
2023-02-09T06:26:17.970Z,-6.13
2023-02-09T06:29:47.800Z,-6.07
2023-02-09T06:33:15.079Z,-5.99
2023-02-09T06:36:42.831Z,-5.90
2023-02-09T06:40:11.696Z,-5.80
2023-02-09T06:43:39.039Z,-5.69
2023-02-09T06:47:06.648Z,-5.50
2023-02-09T06:50:34.030Z,-5.26
2023-02-09T06:54:01.301Z,-4.99
2023-02-09T06:57:29.722Z,-4.70
2023-02-09T07:00:56.857Z,-4.34
2023-02-09T07:04:24.163Z,-3.97
2023-02-09T07:07:51.343Z,-3.66
2023-02-09T07:11:20.091Z,-3.35
2023-02-09T07:14:47.435Z,-2.99
2023-02-09T07:18:14.709Z,-2.70
2023-02-09T07:21:42.175Z,-2.43
2023-02-09T07:25:10.394Z,-2.18
2023-02-09T07:28:38.406Z,-1.97
2023-02-09T07:32:06.959Z,-1.75
2023-02-09T07:35:34.487Z,-1.53
2023-02-09T07:39:01.776Z,-1.33
2023-02-09T07:42:29.279Z,-1.11
2023-02-09T07:46:01.703Z,-0.91
2023-02-09T07:49:28.885Z,-0.78
2023-02-09T07:52:57.372Z,-0.69
2023-02-09T07:56:24.581Z,-0.60
2023-02-09T07:59:51.822Z,-0.49
2023-02-09T08:03:21.455Z,-0.42
2023-02-09T08:06:49.468Z,-0.35
2023-02-09T08:10:16.484Z,-0.26
2023-02-09T08:13:44.487Z,-0.15
2023-02-09T08:17:24.246Z,-0.08
2023-02-09T08:20:50.433Z,-0.07
2023-02-09T08:24:21.922Z,-0.12
2023-02-09T08:27:49.606Z,-0.16
2023-02-09T08:31:19.248Z,-0.18
2023-02-09T08:34:44.743Z,-0.20
2023-02-09T08:38:12.180Z,-0.21
2023-02-09T08:41:39.438Z,-0.21
2023-02-09T08:45:08.115Z,-0.18
2023-02-09T08:48:36.857Z,-0.17
2023-02-09T08:52:04.103Z,-0.17
2023-02-09T08:55:31.513Z,-0.13
2023-02-09T08:58:58.685Z,-0.07
2023-02-09T09:02:25.910Z,0.03
2023-02-09T09:05:56.597Z,0.13
2023-02-09T09:09:23.732Z,0.22
2023-02-09T09:12:52.483Z,0.28
2023-02-09T09:16:21.891Z,0.36
2023-02-09T09:19:52.652Z,0.46
2023-02-09T09:23:21.257Z,0.54
2023-02-09T09:26:48.557Z,0.62
2023-02-09T09:30:16.900Z,0.71
2023-02-09T09:33:45.064Z,0.79
2023-02-09T09:37:12.256Z,0.91
2023-02-09T09:40:42.939Z,0.99
2023-02-09T09:44:17.146Z,1.09
2023-02-09T09:47:45.917Z,1.16
2023-02-09T09:51:21.591Z,1.23
2023-02-09T09:54:48.894Z,1.34
2023-02-09T09:58:25.325Z,1.46
2023-02-09T10:01:54.851Z,1.55
2023-02-09T10:05:21.948Z,1.63
2023-02-09T10:08:54.760Z,1.69
2023-02-09T10:12:39.383Z,1.78
2023-02-09T10:16:18.900Z,1.89
2023-02-09T10:20:09.171Z,2.04
2023-02-09T10:23:45.367Z,2.21
2023-02-09T10:27:29.822Z,2.39
2023-02-09T10:31:00.027Z,2.54
2023-02-09T10:34:33.727Z,2.60
2023-02-09T10:38:04.707Z,2.68
2023-02-09T10:41:35.612Z,2.79
2023-02-09T10:45:15.765Z,2.88
2023-02-09T10:48:47.907Z,2.92
2023-02-09T10:52:23.548Z,2.96
2023-02-09T10:55:51.265Z,2.97
2023-02-09T10:59:23.481Z,3.00
2023-02-09T11:02:52.090Z,3.03
2023-02-09T11:06:21.350Z,3.05
2023-02-09T11:09:53.245Z,3.12
2023-02-09T11:13:26.178Z,3.17
2023-02-09T11:17:18.227Z,3.23
2023-02-09T11:20:51.419Z,3.36
2023-02-09T11:24:42.956Z,3.45
2023-02-09T11:28:28.540Z,3.48
2023-02-09T11:32:10.737Z,3.53
2023-02-09T11:35:48.635Z,3.67
2023-02-09T11:39:21.744Z,3.83
2023-02-09T11:42:55.708Z,3.94
2023-02-09T11:46:25.941Z,4.04
2023-02-09T11:49:55.220Z,4.14
2023-02-09T11:53:29.274Z,4.20
2023-02-09T11:57:02.722Z,4.24
2023-02-09T12:00:47.982Z,4.34
2023-02-09T12:04:20.804Z,4.44
2023-02-09T12:08:03.032Z,4.52
2023-02-09T12:11:38.311Z,4.60
2023-02-09T12:15:14.953Z,4.66
2023-02-09T12:18:44.543Z,4.67
2023-02-09T12:22:46.152Z,4.68
2023-02-09T12:26:37.961Z,4.64
2023-02-09T12:30:29.879Z,4.59
2023-02-09T12:34:29.666Z,4.52
2023-02-09T12:38:15.786Z,4.48
2023-02-09T12:42:17.679Z,4.41
2023-02-09T12:46:17.211Z,4.38
2023-02-09T12:49:45.442Z,4.41
2023-02-09T12:53:45.017Z,4.41
2023-02-09T12:57:48.549Z,4.38
2023-02-09T13:01:17.721Z,4.36
2023-02-09T13:04:55.212Z,4.35
2023-02-09T13:08:37.061Z,4.31
2023-02-09T13:12:12.336Z,4.26
2023-02-09T13:15:53.266Z,4.21
2023-02-09T13:19:54.068Z,4.18
2023-02-09T13:23:30.051Z,4.15
2023-02-09T13:26:59.340Z,4.11
2023-02-09T13:30:32.092Z,4.07
2023-02-09T13:34:04.584Z,4.02
2023-02-09T13:37:43.064Z,4.00
2023-02-09T13:41:23.319Z,3.98
2023-02-09T13:44:54.133Z,3.96
2023-02-09T13:48:27.249Z,3.96
2023-02-09T13:52:13.123Z,3.96
2023-02-09T13:55:42.834Z,3.94
2023-02-09T13:59:13.679Z,3.91
2023-02-09T14:02:44.702Z,3.88
2023-02-09T14:06:18.177Z,3.86
2023-02-09T14:09:51.151Z,3.81
2023-02-09T14:13:30.827Z,3.76
2023-02-09T14:17:25.499Z,3.72
2023-02-09T14:21:04.517Z,3.68
2023-02-09T14:24:44.331Z,3.60
2023-02-09T14:28:17.285Z,3.55
2023-02-09T14:31:47.718Z,3.53
2023-02-09T14:35:24.250Z,3.49
2023-02-09T14:38:51.905Z,3.45
2023-02-09T14:42:20.140Z,3.39
2023-02-09T14:45:49.830Z,3.34
2023-02-09T14:49:17.346Z,3.27
2023-02-09T14:52:47.292Z,3.21
2023-02-09T14:56:23.203Z,3.14
2023-02-09T14:59:50.658Z,3.05
2023-02-09T15:03:17.854Z,2.95
2023-02-09T15:06:48.975Z,2.88
2023-02-09T15:10:28.525Z,2.80
2023-02-09T15:13:57.679Z,2.70
2023-02-09T15:17:28.088Z,2.59
2023-02-09T15:20:55.662Z,2.47
2023-02-09T15:24:22.804Z,2.35
2023-02-09T15:27:52.609Z,2.23
2023-02-09T15:31:20.021Z,2.13
2023-02-09T15:34:51.882Z,2.03
2023-02-09T15:38:19.929Z,1.93
2023-02-09T15:42:05.096Z,1.81
2023-02-09T15:45:50.777Z,1.66
2023-02-09T15:49:17.975Z,1.51
2023-02-09T15:52:45.410Z,1.36
2023-02-09T15:56:14.368Z,1.21
2023-02-09T15:59:42.665Z,1.09
2023-02-09T16:03:16.602Z,0.98
2023-02-09T16:06:53.026Z,0.89
2023-02-09T16:10:25.199Z,0.79
2023-02-09T16:13:52.613Z,0.71
2023-02-09T16:17:19.782Z,0.62
2023-02-09T16:20:51.032Z,0.55
2023-02-09T16:24:23.796Z,0.50
2023-02-09T16:27:52.614Z,0.44
2023-02-09T16:31:20.438Z,0.37
2023-02-09T16:34:48.017Z,0.28
2023-02-09T16:38:20.389Z,0.18
2023-02-09T16:41:49.781Z,0.07
2023-02-09T16:45:18.771Z,-0.04
2023-02-09T16:48:48.437Z,-0.13
2023-02-09T16:52:20.247Z,-0.20
2023-02-09T16:55:50.348Z,-0.27
2023-02-09T16:59:17.990Z,-0.37
2023-02-09T17:02:49.229Z,-0.44
2023-02-09T17:06:21.329Z,-0.50
2023-02-09T17:09:48.430Z,-0.54
2023-02-09T17:13:17.473Z,-0.55
2023-02-09T17:16:49.675Z,-0.54
2023-02-09T17:20:22.282Z,-0.52
2023-02-09T17:23:51.778Z,-0.51
2023-02-09T17:27:19.376Z,-0.48
2023-02-09T17:30:49.752Z,-0.45
2023-02-09T17:34:18.794Z,-0.40
2023-02-09T17:37:46.762Z,-0.34
2023-02-09T17:41:18.659Z,-0.29
2023-02-09T17:44:46.852Z,-0.22
2023-02-09T17:48:15.112Z,-0.17
2023-02-09T17:51:46.091Z,-0.14
2023-02-09T17:55:21.263Z,-0.09
2023-02-09T17:58:48.618Z,-0.03
2023-02-09T18:02:19.867Z,0.01
2023-02-09T18:05:50.164Z,0.05
2023-02-09T18:09:17.665Z,0.09
2023-02-09T18:12:45.343Z,0.13
2023-02-09T18:16:13.767Z,0.15
2023-02-09T18:19:42.369Z,0.19
2023-02-09T18:23:09.690Z,0.21
2023-02-09T18:26:37.084Z,0.23
2023-02-09T18:30:04.697Z,0.27
2023-02-09T18:33:31.972Z,0.33
2023-02-09T18:36:59.277Z,0.41
2023-02-09T18:40:27.108Z,0.45
2023-02-09T18:43:54.636Z,0.51
2023-02-09T18:47:22.339Z,0.56
2023-02-09T18:50:49.654Z,0.61
2023-02-09T18:54:16.874Z,0.64
2023-02-09T18:57:44.095Z,0.64
2023-02-09T19:01:14.531Z,0.64
2023-02-09T19:04:42.389Z,0.63
2023-02-09T19:08:10.323Z,0.62
2023-02-09T19:11:37.637Z,0.60
2023-02-09T19:15:05.204Z,0.57
2023-02-09T19:18:34.532Z,0.54
2023-02-09T19:22:01.924Z,0.50
2023-02-09T19:25:31.494Z,0.45
2023-02-09T19:29:00.100Z,0.41
2023-02-09T19:32:28.178Z,0.34
2023-02-09T19:36:02.486Z,0.31
2023-02-09T19:39:32.463Z,0.26
2023-02-09T19:42:59.877Z,0.20
2023-02-09T19:46:27.590Z,0.15
2023-02-09T19:49:54.915Z,0.09
2023-02-09T19:53:22.280Z,0.03
2023-02-09T19:56:49.563Z,-0.01
2023-02-09T20:00:19.275Z,-0.05
2023-02-09T20:03:48.134Z,-0.07
2023-02-09T20:07:15.955Z,-0.09
2023-02-09T20:10:44.972Z,-0.12
2023-02-09T20:14:12.662Z,-0.14
2023-02-09T20:17:39.817Z,-0.14
2023-02-09T20:21:09.870Z,-0.16
2023-02-09T20:24:37.352Z,-0.15
2023-02-09T20:28:04.442Z,-0.14
2023-02-09T20:31:35.021Z,-0.15
2023-02-09T20:35:02.619Z,-0.18
2023-02-09T20:38:29.800Z,-0.22
2023-02-09T20:42:17.620Z,-0.26
2023-02-09T20:46:02.771Z,-0.29
2023-02-09T20:49:37.032Z,-0.31
2023-02-09T20:53:04.528Z,-0.33
2023-02-09T20:56:32.097Z,-0.34
2023-02-09T21:00:00.180Z,-0.35
2023-02-09T21:03:27.697Z,-0.37
2023-02-09T21:06:55.163Z,-0.39
2023-02-09T21:10:23.076Z,-0.44
2023-02-09T21:13:50.280Z,-0.48
2023-02-09T21:17:17.888Z,-0.51
2023-02-09T21:20:45.322Z,-0.55
2023-02-09T21:24:12.762Z,-0.59
2023-02-09T21:27:39.888Z,-0.63
2023-02-09T21:31:12.479Z,-0.65
2023-02-09T21:34:39.646Z,-0.69
2023-02-09T21:38:07.406Z,-0.73
2023-02-09T21:41:52.538Z,-0.80
2023-02-09T21:45:20.047Z,-0.85
2023-02-09T21:48:47.526Z,-0.88
2023-02-09T21:52:14.704Z,-0.92
2023-02-09T21:55:42.702Z,-0.97
2023-02-09T21:59:10.459Z,-1.02
2023-02-09T22:02:38.836Z,-1.06
2023-02-09T22:06:07.131Z,-1.10
2023-02-09T22:09:34.535Z,-1.15
2023-02-09T22:13:08.723Z,-1.18
2023-02-09T22:16:36.164Z,-1.22
2023-02-09T22:20:03.508Z,-1.25
2023-02-09T22:23:30.986Z,-1.31
2023-02-09T22:26:59.271Z,-1.38
2023-02-09T22:30:26.496Z,-1.44
2023-02-09T22:33:58.604Z,-1.50
2023-02-09T22:37:25.688Z,-1.55
2023-02-09T22:40:52.936Z,-1.62
2023-02-09T22:44:20.594Z,-1.67
2023-02-09T22:47:47.768Z,-1.74
2023-02-09T22:51:18.823Z,-1.78
2023-02-09T22:54:46.130Z,-1.81
2023-02-09T22:58:13.408Z,-1.84
2023-02-09T23:01:41.103Z,-1.87
2023-02-09T23:05:09.343Z,-1.94
2023-02-09T23:08:37.242Z,-1.98
2023-02-09T23:12:05.570Z,-2.03
2023-02-09T23:15:32.938Z,-2.06
2023-02-09T23:19:04.014Z,-2.07
2023-02-09T23:22:31.141Z,-2.08
2023-02-09T23:25:58.959Z,-2.07
2023-02-09T23:29:26.397Z,-2.06
2023-02-09T23:32:53.550Z,-2.06
2023-02-09T23:36:24.850Z,-2.06
2023-02-09T23:39:52.087Z,-2.04
2023-02-09T23:43:19.451Z,-2.03
2023-02-09T23:46:46.884Z,-2.02
2023-02-09T23:50:14.173Z,-2.02
2023-02-09T23:53:49.577Z,-2.01
2023-02-09T23:57:18.106Z,-2.00
